createdAt,value
2015-11-21T00:00:07.384Z,704.03
2015-11-21T00:00:20.649Z,703.91
2015-11-21T00:00:34.024Z,704.11
2015-11-21T00:00:47.290Z,704.05
2015-11-21T00:01:00.571Z,704.13
2015-11-21T00:01:13.871Z,703.87
2015-11-21T00:01:27.168Z,703.32
2015-11-21T00:01:40.574Z,703.93
2015-11-21T00:01:53.871Z,703.88
2015-11-21T00:02:07.124Z,704.01
2015-11-21T00:02:20.390Z,704.18
2015-11-21T00:02:33.624Z,703.89
2015-11-21T00:02:46.874Z,704
2015-11-21T00:03:00.155Z,703.75
2015-11-21T00:03:13.486Z,704.01
2015-11-21T00:03:26.782Z,703.36
2015-11-21T00:03:40.079Z,703.91
2015-11-21T00:03:53.220Z,704.17
2015-11-21T00:04:06.501Z,704.14
2015-11-21T00:04:19.817Z,704.34
2015-11-21T00:04:33.223Z,704.3
2015-11-21T00:04:46.473Z,704.33
2015-11-21T00:04:59.707Z,704.27
2015-11-21T00:05:12.945Z,704.14
2015-11-21T00:05:26.398Z,704.04
2015-11-21T00:05:39.679Z,703.89
2015-11-21T00:05:53.007Z,703.84
2015-11-21T00:06:06.320Z,703.82
2015-11-21T00:06:19.619Z,703.82
2015-11-21T00:06:32.915Z,703.99
2015-11-21T00:06:46.181Z,703.67
2015-11-21T00:06:59.431Z,703.77
2015-11-21T00:07:12.700Z,703.37
2015-11-21T00:07:25.965Z,703.71
2015-11-21T00:07:39.231Z,703.79
2015-11-21T00:07:52.481Z,703.33
2015-11-21T00:08:05.762Z,703.76
2015-11-21T00:08:19.031Z,703.49
2015-11-21T00:08:32.343Z,703.59
2015-11-21T00:08:45.656Z,703.7
2015-11-21T00:08:58.968Z,703.47
2015-11-21T00:09:12.234Z,703.91
2015-11-21T00:09:25.487Z,703.84
2015-11-21T00:09:38.846Z,703.8
2015-11-21T00:09:52.174Z,703.91
2015-11-21T00:10:05.643Z,703.85
2015-11-21T00:10:18.926Z,703.44
2015-11-21T00:10:32.239Z,703.58
2015-11-21T00:10:45.536Z,702.75
2015-11-21T00:10:58.973Z,703.97
2015-11-21T00:11:12.239Z,702.98
2015-11-21T00:11:25.508Z,703.74
2015-11-21T00:11:38.758Z,703.78
2015-11-21T00:11:52.023Z,703.76
2015-11-21T00:12:05.289Z,703.67
2015-11-21T00:12:18.588Z,703.95
2015-11-21T00:12:31.869Z,703.83
2015-11-21T00:12:45.197Z,703.65
2015-11-21T00:12:58.478Z,703.62
2015-11-21T00:13:11.775Z,703.24
2015-11-21T00:13:24.904Z,703.65
2015-11-21T00:13:38.139Z,703.37
2015-11-21T00:13:51.639Z,703.72
2015-11-21T00:14:04.904Z,703.73
2015-11-21T00:14:18.234Z,703.53
2015-11-21T00:14:31.562Z,703.79
2015-11-21T00:14:44.828Z,703.67
2015-11-21T00:14:58.109Z,703.79
2015-11-21T00:15:11.391Z,703.85
2015-11-21T00:15:24.675Z,703.73
2015-11-21T00:15:38.050Z,703.36
2015-11-21T00:15:51.315Z,703.5
2015-11-21T00:16:04.565Z,703.63
2015-11-21T00:16:17.864Z,703.41
2015-11-21T00:16:31.130Z,703.66
2015-11-21T00:16:44.411Z,703.34
2015-11-21T00:16:57.739Z,703.3
2015-11-21T00:17:10.989Z,703.66
2015-11-21T00:17:24.274Z,703.59
2015-11-21T00:17:37.539Z,703.61
2015-11-21T00:17:50.789Z,703.53
2015-11-21T00:18:04.055Z,703.69
2015-11-21T00:18:17.305Z,703.75
2015-11-21T00:18:30.542Z,703.83
2015-11-21T00:18:43.886Z,703.38
2015-11-21T00:18:57.167Z,704.01
2015-11-21T00:19:10.464Z,703.95
2015-11-21T00:19:23.780Z,703.38
2015-11-21T00:19:37.030Z,703.93
2015-11-21T00:19:50.295Z,703.62
2015-11-21T00:20:03.561Z,704.05
2015-11-21T00:20:16.858Z,703.48
2015-11-21T00:20:30.125Z,703.26
2015-11-21T00:20:43.391Z,703.57
2015-11-21T00:20:56.672Z,703.67
2015-11-21T00:21:09.969Z,703.56
2015-11-21T00:21:23.394Z,703.74
2015-11-21T00:21:36.785Z,703.37
2015-11-21T00:21:50.035Z,703.51
2015-11-21T00:22:03.331Z,703.61
2015-11-21T00:22:16.581Z,703.74
2015-11-21T00:22:29.850Z,703.72
2015-11-21T00:22:43.131Z,703.58
2015-11-21T00:22:56.428Z,703.62
2015-11-21T00:23:09.772Z,703.58
2015-11-21T00:23:23.084Z,703.15
2015-11-21T00:23:36.384Z,703.4
2015-11-21T00:23:49.994Z,703.58
2015-11-21T00:24:03.291Z,703.74
2015-11-21T00:24:16.525Z,703.73
2015-11-21T00:24:29.794Z,703.73
2015-11-21T00:24:43.059Z,703.97
2015-11-21T00:24:56.387Z,703.82
2015-11-21T00:25:09.684Z,703.72
2015-11-21T00:25:22.950Z,703.46
2015-11-21T00:25:36.233Z,703.93
2015-11-21T00:25:49.514Z,703.96
2015-11-21T00:26:02.796Z,703.87
2015-11-21T00:26:16.061Z,703.76
2015-11-21T00:26:29.299Z,704.1
2015-11-21T00:26:42.580Z,703.98
2015-11-21T00:26:55.861Z,703.97
2015-11-21T00:27:09.142Z,703.25
2015-11-21T00:27:22.408Z,703.78
2015-11-21T00:27:35.708Z,703.67
2015-11-21T00:27:48.989Z,703.85
2015-11-21T00:28:02.302Z,703.74
2015-11-21T00:28:15.567Z,703.36
2015-11-21T00:28:28.835Z,704.09
2015-11-21T00:28:42.085Z,703.6
2015-11-21T00:28:55.350Z,703.14
2015-11-21T00:29:08.616Z,703.78
2015-11-21T00:29:21.866Z,703.45
2015-11-21T00:29:35.182Z,703.42
2015-11-21T00:29:48.463Z,703.52
2015-11-21T00:30:01.760Z,703.49
2015-11-21T00:30:15.041Z,703.7
2015-11-21T00:30:28.307Z,703.44
2015-11-21T00:30:41.653Z,703.65
2015-11-21T00:30:55.013Z,703.78
2015-11-21T00:31:08.278Z,704.17
2015-11-21T00:31:21.528Z,703.57
2015-11-21T00:31:34.812Z,703.07
2015-11-21T00:31:48.171Z,703.67
2015-11-21T00:32:01.452Z,703.71
2015-11-21T00:32:14.765Z,703.77
2015-11-21T00:32:28.030Z,703.18
2015-11-21T00:32:41.315Z,703.77
2015-11-21T00:32:54.690Z,703.78
2015-11-21T00:33:07.940Z,703.56
2015-11-21T00:33:21.221Z,703.29
2015-11-21T00:33:34.521Z,703.35
2015-11-21T00:33:47.818Z,703.46
2015-11-21T00:34:01.068Z,703.07
2015-11-21T00:34:14.349Z,703.63
2015-11-21T00:34:27.599Z,703.44
2015-11-21T00:34:40.866Z,703.33
2015-11-21T00:34:54.132Z,703.86
2015-11-21T00:35:07.413Z,703.94
2015-11-21T00:35:20.757Z,703.59
2015-11-21T00:35:34.135Z,703.4
2015-11-21T00:35:47.385Z,703.25
2015-11-21T00:36:00.682Z,703.72
2015-11-21T00:36:13.979Z,703.53
2015-11-21T00:36:27.229Z,703.78
2015-11-21T00:36:40.482Z,703.83
2015-11-21T00:36:53.747Z,704.05
2015-11-21T00:37:07.013Z,704.02
2015-11-21T00:37:20.310Z,704.07
2015-11-21T00:37:33.625Z,703.9
2015-11-21T00:37:46.922Z,703.68
2015-11-21T00:38:00.235Z,703.82
2015-11-21T00:38:13.563Z,703.63
2015-11-21T00:38:26.813Z,703.76
2015-11-21T00:38:40.299Z,703.75
2015-11-21T00:38:53.549Z,703.66
2015-11-21T00:39:06.815Z,703.84
2015-11-21T00:39:20.127Z,703.89
2015-11-21T00:39:33.396Z,703.61
2015-11-21T00:39:46.724Z,703.92
2015-11-21T00:40:00.037Z,703.62
2015-11-21T00:40:13.334Z,703.9
2015-11-21T00:40:26.599Z,703.71
2015-11-21T00:40:39.867Z,703.71
2015-11-21T00:40:53.117Z,703.69
2015-11-21T00:41:06.367Z,703.77
2015-11-21T00:41:19.726Z,703.96
2015-11-21T00:41:33.042Z,703.84
2015-11-21T00:41:46.339Z,703.71
2015-11-21T00:41:59.604Z,703.91
2015-11-21T00:42:12.917Z,703.99
2015-11-21T00:42:26.276Z,703.54
2015-11-21T00:42:39.560Z,703.77
2015-11-21T00:42:52.904Z,703.87
2015-11-21T00:43:06.154Z,704.12
2015-11-21T00:43:19.451Z,703.62
2015-11-21T00:43:32.732Z,703.61
2015-11-21T00:43:45.985Z,703.83
2015-11-21T00:43:59.251Z,703.91
2015-11-21T00:44:12.516Z,703.8
2015-11-21T00:44:25.782Z,703.81
2015-11-21T00:44:39.175Z,703.89
2015-11-21T00:44:52.550Z,703.94
2015-11-21T00:45:05.956Z,703.69
2015-11-21T00:45:19.237Z,703.61
2015-11-21T00:45:32.503Z,703.68
2015-11-21T00:45:45.756Z,703.59
2015-11-21T00:45:59.006Z,703.76
2015-11-21T00:46:12.271Z,703.77
2015-11-21T00:46:25.521Z,703.65
2015-11-21T00:46:38.806Z,703.72
2015-11-21T00:46:52.103Z,703.85
2015-11-21T00:47:05.399Z,703.8
2015-11-21T00:47:18.696Z,703.57
2015-11-21T00:47:32.024Z,703.54
2015-11-21T00:47:45.308Z,703.97
2015-11-21T00:47:58.605Z,703.75
2015-11-21T00:48:11.855Z,703.61
2015-11-21T00:48:25.105Z,703.67
2015-11-21T00:48:38.404Z,703.61
2015-11-21T00:48:51.701Z,703.62
2015-11-21T00:49:05.029Z,703.65
2015-11-21T00:49:18.295Z,703.43
2015-11-21T00:49:31.545Z,703.59
2015-11-21T00:49:44.814Z,703.69
2015-11-21T00:49:58.173Z,703.87
2015-11-21T00:50:11.423Z,703.8
2015-11-21T00:50:24.673Z,703.73
2015-11-21T00:50:37.939Z,703.73
2015-11-21T00:50:51.207Z,703.51
2015-11-21T00:51:04.535Z,703.48
2015-11-21T00:51:17.848Z,703.54
2015-11-21T00:51:31.129Z,703.55
2015-11-21T00:51:44.381Z,703.64
2015-11-21T00:51:57.647Z,703.68
2015-11-21T00:52:10.897Z,703.66
2015-11-21T00:52:24.162Z,703.45
2015-11-21T00:52:37.459Z,703.5
2015-11-21T00:52:50.728Z,703.27
2015-11-21T00:53:04.009Z,703.48
2015-11-21T00:53:17.290Z,703.33
2015-11-21T00:53:30.603Z,703.34
2015-11-21T00:53:43.981Z,703.19
2015-11-21T00:53:57.356Z,703.36
2015-11-21T00:54:10.622Z,703.5
2015-11-21T00:54:23.887Z,703.44
2015-11-21T00:54:37.137Z,703.42
2015-11-21T00:54:50.390Z,703.06
2015-11-21T00:55:03.640Z,703.24
2015-11-21T00:55:16.921Z,703.21
2015-11-21T00:55:30.218Z,703.5
2015-11-21T00:55:43.562Z,703.52
2015-11-21T00:55:56.862Z,703.55
2015-11-21T00:56:10.174Z,703.64
2015-11-21T00:56:23.471Z,703.53
2015-11-21T00:56:36.846Z,703.65
2015-11-21T00:56:50.161Z,703.7
2015-11-21T00:57:03.411Z,703.69
2015-11-21T00:57:16.661Z,703.58
2015-11-21T00:57:30.005Z,703.38
2015-11-21T00:57:43.301Z,703.44
2015-11-21T00:57:56.586Z,703.67
2015-11-21T00:58:09.867Z,703.55
2015-11-21T00:58:23.148Z,703.63
2015-11-21T00:58:36.476Z,703.51
2015-11-21T00:58:49.775Z,703.75
2015-11-21T00:59:03.025Z,703.59
2015-11-21T00:59:16.291Z,703.91
2015-11-21T00:59:29.416Z,703.75
2015-11-21T00:59:42.713Z,703.7
2015-11-21T00:59:56.013Z,703.82
2015-11-21T01:00:09.278Z,703.76
2015-11-21T01:00:22.528Z,703.52
2015-11-21T01:00:35.778Z,703.73
2015-11-21T01:00:49.044Z,703.7
2015-11-21T01:01:02.312Z,703.38
2015-11-21T01:01:15.625Z,703.67
2015-11-21T01:01:28.906Z,703.74
2015-11-21T01:01:42.172Z,703.63
2015-11-21T01:01:55.472Z,703.68
2015-11-21T01:02:08.831Z,703.71
2015-11-21T01:02:22.112Z,703.78
2015-11-21T01:02:35.487Z,703.43
2015-11-21T01:02:48.800Z,703.46
2015-11-21T01:03:02.067Z,703.39
2015-11-21T01:03:15.317Z,703.28
2015-11-21T01:03:28.583Z,703.46
2015-11-21T01:03:41.896Z,703.42
2015-11-21T01:03:55.243Z,703.51
2015-11-21T01:04:08.540Z,703.28
2015-11-21T01:04:21.993Z,703.21
2015-11-21T01:04:35.306Z,703.47
2015-11-21T01:04:48.556Z,703.56
2015-11-21T01:05:01.809Z,703.29
2015-11-21T01:05:15.074Z,703.81
2015-11-21T01:05:28.434Z,703.57
2015-11-21T01:05:41.746Z,703.6
2015-11-21T01:05:55.014Z,703.78
2015-11-21T01:06:08.280Z,703.94
2015-11-21T01:06:21.561Z,703.53
2015-11-21T01:06:34.951Z,703.43
2015-11-21T01:06:48.217Z,703.63
2015-11-21T01:07:01.470Z,703.56
2015-11-21T01:07:14.736Z,703.67
2015-11-21T01:07:28.001Z,703.67
2015-11-21T01:07:41.314Z,703.71
2015-11-21T01:07:54.579Z,703.53
2015-11-21T01:08:07.878Z,703.48
2015-11-21T01:08:21.175Z,703.45
2015-11-21T01:08:34.441Z,703.25
2015-11-21T01:08:47.722Z,703.3
2015-11-21T01:09:01.038Z,703.52
2015-11-21T01:09:14.475Z,703.63
2015-11-21T01:09:27.756Z,703.43
2015-11-21T01:09:40.991Z,703.46
2015-11-21T01:09:54.288Z,703.46
2015-11-21T01:10:07.556Z,703.6
2015-11-21T01:10:21.009Z,703.82
2015-11-21T01:10:34.322Z,703.72
2015-11-21T01:10:47.634Z,703.63
2015-11-21T01:11:00.886Z,703.55
2015-11-21T01:11:14.199Z,703.68
2015-11-21T01:11:27.449Z,703.42
2015-11-21T01:11:40.730Z,703.56
2015-11-21T01:11:53.996Z,703.12
2015-11-21T01:12:07.280Z,703.35
2015-11-21T01:12:20.655Z,703.27
2015-11-21T01:12:33.936Z,703.23
2015-11-21T01:12:47.233Z,703.33
2015-11-21T01:13:00.530Z,703.73
2015-11-21T01:13:13.830Z,703.52
2015-11-21T01:13:27.095Z,703.11
2015-11-21T01:13:40.361Z,703.72
2015-11-21T01:13:53.627Z,703.48
2015-11-21T01:14:06.911Z,703.74
2015-11-21T01:14:20.177Z,703.62
2015-11-21T01:14:33.427Z,703.6
2015-11-21T01:14:46.692Z,703.42
2015-11-21T01:14:59.958Z,703.3
2015-11-21T01:15:13.336Z,703.28
2015-11-21T01:15:26.633Z,703.26
2015-11-21T01:15:39.930Z,703.57
2015-11-21T01:15:53.180Z,703.46
2015-11-21T01:16:06.447Z,703.4
2015-11-21T01:16:19.697Z,703.57
2015-11-21T01:16:32.947Z,703.59
2015-11-21T01:16:46.197Z,703.54
2015-11-21T01:16:59.463Z,703.54
2015-11-21T01:17:12.747Z,703.63
2015-11-21T01:17:26.028Z,703.57
2015-11-21T01:17:39.310Z,703.2
2015-11-21T01:17:52.685Z,703.59
2015-11-21T01:18:06.091Z,703.59
2015-11-21T01:18:19.483Z,703.46
2015-11-21T01:18:32.749Z,703.58
2015-11-21T01:18:46.015Z,703.46
2015-11-21T01:18:59.280Z,703.58
2015-11-21T01:19:12.533Z,703.18
2015-11-21T01:19:25.783Z,703.34
2015-11-21T01:19:39.033Z,703.37
2015-11-21T01:19:52.283Z,703.4
2015-11-21T01:20:05.565Z,703.29
2015-11-21T01:20:18.880Z,703.21
2015-11-21T01:20:32.130Z,702.96
2015-11-21T01:20:45.380Z,703.25
2015-11-21T01:20:58.693Z,702.92
2015-11-21T01:21:11.977Z,703.04
2015-11-21T01:21:25.242Z,703.2
2015-11-21T01:21:38.492Z,703.49
2015-11-21T01:21:51.789Z,703.28
2015-11-21T01:22:05.117Z,702.86
2015-11-21T01:22:18.433Z,703.18
2015-11-21T01:22:59.120Z,703.34
2015-11-21T01:23:12.404Z,703.3
2015-11-21T01:23:25.654Z,703.22
2015-11-21T01:23:38.904Z,703.42
2015-11-21T01:23:52.185Z,703.49
2015-11-21T01:24:05.466Z,703.66
2015-11-21T01:24:18.812Z,703.35
2015-11-21T01:24:32.156Z,703.09
2015-11-21T01:24:45.468Z,703.37
2015-11-21T01:24:58.718Z,703.51
2015-11-21T01:25:11.987Z,703.23
2015-11-21T01:25:25.268Z,703.34
2015-11-21T01:25:38.534Z,703.32
2015-11-21T01:25:51.784Z,703.56
2015-11-21T01:26:05.049Z,703.64
2015-11-21T01:26:18.349Z,703.25
2015-11-21T01:26:31.693Z,703.18
2015-11-21T01:26:45.021Z,703.26
2015-11-21T01:26:58.334Z,703.3
2015-11-21T01:27:11.599Z,703.21
2015-11-21T01:27:24.900Z,703.18
2015-11-21T01:27:38.213Z,703.12
2015-11-21T01:27:51.478Z,703.1
2015-11-21T01:28:04.744Z,703.12
2015-11-21T01:28:17.996Z,703.29
2015-11-21T01:28:31.293Z,703.25
2015-11-21T01:28:44.543Z,703.31
2015-11-21T01:28:57.824Z,703.04
2015-11-21T01:29:11.183Z,703.36
2015-11-21T01:29:24.499Z,703.28
2015-11-21T01:29:37.796Z,703.32
2015-11-21T01:29:51.046Z,702.96
2015-11-21T01:30:04.343Z,703.28
2015-11-21T01:30:17.688Z,702.79
2015-11-21T01:30:30.954Z,703.21
2015-11-21T01:30:44.204Z,703.3
2015-11-21T01:30:57.470Z,702.96
2015-11-21T01:31:10.813Z,703.21
2015-11-21T01:31:24.098Z,702.64
2015-11-21T01:31:37.394Z,702.85
2015-11-21T01:31:50.644Z,703.13
2015-11-21T01:32:03.894Z,703.24
2015-11-21T01:32:17.176Z,703.11
2015-11-21T01:32:30.444Z,703.37
2015-11-21T01:32:43.726Z,703.35
2015-11-21T01:32:57.085Z,702.86
2015-11-21T01:33:10.366Z,703.12
2015-11-21T01:33:23.635Z,703.24
2015-11-21T01:33:36.947Z,703
2015-11-21T01:33:50.244Z,703.21
2015-11-21T01:34:03.494Z,703.34
2015-11-21T01:34:16.760Z,703.08
2015-11-21T01:34:30.231Z,703.18
2015-11-21T01:34:43.559Z,703.08
2015-11-21T01:34:56.809Z,703.06
2015-11-21T01:35:10.059Z,703.21
2015-11-21T01:35:23.374Z,703.28
2015-11-21T01:35:36.702Z,703.16
2015-11-21T01:35:49.984Z,703.26
2015-11-21T01:36:03.234Z,703.19
2015-11-21T01:36:16.484Z,703.11
2015-11-21T01:36:29.752Z,703.14
2015-11-21T01:36:43.018Z,702.61
2015-11-21T01:36:56.283Z,703.08
2015-11-21T01:37:09.549Z,703.16
2015-11-21T01:37:22.862Z,703.25
2015-11-21T01:37:36.115Z,703.29
2015-11-21T01:37:49.365Z,703.06
2015-11-21T01:38:02.630Z,703.09
2015-11-21T01:38:15.880Z,702.99
2015-11-21T01:38:29.195Z,703
2015-11-21T01:38:42.460Z,702.83
2015-11-21T01:38:55.773Z,702.97
2015-11-21T01:39:09.023Z,703.22
2015-11-21T01:39:22.273Z,702.99
2015-11-21T01:39:35.541Z,702.98
2015-11-21T01:39:49.073Z,702.77
2015-11-21T01:40:02.323Z,702.88
2015-11-21T01:40:15.604Z,702.92
2015-11-21T01:40:28.918Z,703.31
2015-11-21T01:40:42.278Z,703.08
2015-11-21T01:40:55.559Z,702.72
2015-11-21T01:41:08.825Z,702.83
2015-11-21T01:41:22.090Z,703.1
2015-11-21T01:41:35.343Z,703.14
2015-11-21T01:41:48.671Z,703.25
2015-11-21T01:42:01.921Z,703.23
2015-11-21T01:42:15.203Z,702.83
2015-11-21T01:42:28.487Z,702.99
2015-11-21T01:42:41.784Z,703.24
2015-11-21T01:42:55.065Z,702.99
2015-11-21T01:43:08.362Z,702.95
2015-11-21T01:43:21.628Z,702.88
2015-11-21T01:43:34.896Z,703.26
2015-11-21T01:43:48.146Z,703.17
2015-11-21T01:44:01.412Z,702.99
2015-11-21T01:44:14.521Z,703.19
2015-11-21T01:44:27.805Z,702.99
2015-11-21T01:44:41.071Z,702.97
2015-11-21T01:44:54.352Z,703.15
2015-11-21T01:45:07.649Z,702.85
2015-11-21T01:45:20.930Z,702.99
2015-11-21T01:45:34.182Z,703.11
2015-11-21T01:45:47.432Z,703.16
2015-11-21T01:46:00.698Z,703.29
2015-11-21T01:46:13.979Z,703.06
2015-11-21T01:46:27.214Z,703.05
2015-11-21T01:46:40.498Z,703.29
2015-11-21T01:46:53.764Z,703.31
2015-11-21T01:47:07.060Z,703.15
2015-11-21T01:47:20.342Z,703.15
2015-11-21T01:47:33.657Z,702.76
2015-11-21T01:47:46.907Z,702.96
2015-11-21T01:48:00.173Z,702.97
2015-11-21T01:48:13.423Z,702.96
2015-11-21T01:48:26.704Z,703.01
2015-11-21T01:48:39.831Z,702.54
2015-11-21T01:48:53.112Z,702.93
2015-11-21T01:49:06.472Z,703
2015-11-21T01:49:19.722Z,702.54
2015-11-21T01:49:32.975Z,702.87
2015-11-21T01:49:46.256Z,702.87
2015-11-21T01:49:59.522Z,702.97
2015-11-21T01:50:12.772Z,702.92
2015-11-21T01:50:26.022Z,702.94
2015-11-21T01:50:39.305Z,702.75
2015-11-21T01:50:52.570Z,702.95
2015-11-21T01:51:05.867Z,702.61
2015-11-21T01:51:19.164Z,702.88
2015-11-21T01:51:32.480Z,702.95
2015-11-21T01:51:45.730Z,702.94
2015-11-21T01:51:58.980Z,702.83
2015-11-21T01:52:12.261Z,702.9
2015-11-21T01:52:25.542Z,703.1
2015-11-21T01:52:38.826Z,703.01
2015-11-21T01:52:52.076Z,703.02
2015-11-21T01:53:05.373Z,702.89
2015-11-21T01:53:18.655Z,702.99
2015-11-21T01:53:31.951Z,702.9
2015-11-21T01:53:45.236Z,702.89
2015-11-21T01:53:58.548Z,702.83
2015-11-21T01:54:11.814Z,702.71
2015-11-21T01:54:25.064Z,702.74
2015-11-21T01:54:38.411Z,703.15
2015-11-21T01:54:51.770Z,702.81
2015-11-21T01:55:05.051Z,702.85
2015-11-21T01:55:18.161Z,702.86
2015-11-21T01:55:31.442Z,702.59
2015-11-21T01:55:44.789Z,702.81
2015-11-21T01:55:58.101Z,703.03
2015-11-21T01:56:11.382Z,703.1
2015-11-21T01:56:24.632Z,702.95
2015-11-21T01:56:37.900Z,702.99
2015-11-21T01:56:51.197Z,702.94
2015-11-21T01:57:04.462Z,702.74
2015-11-21T01:57:17.728Z,702.81
2015-11-21T01:57:31.009Z,703
2015-11-21T01:57:44.309Z,702.98
2015-11-21T01:57:57.622Z,702.9
2015-11-21T01:58:10.903Z,703.01
2015-11-21T01:58:24.153Z,702.88
2015-11-21T01:58:37.403Z,703.08
2015-11-21T01:58:51.015Z,702.78
2015-11-21T01:59:04.265Z,702.88
2015-11-21T01:59:17.547Z,703.01
2015-11-21T01:59:30.843Z,702.77
2015-11-21T01:59:44.111Z,703.03
2015-11-21T01:59:57.361Z,702.94
2015-11-21T02:00:10.658Z,703.04
2015-11-21T02:00:23.908Z,702.96
2015-11-21T02:00:37.174Z,703.09
2015-11-21T02:00:50.442Z,702.79
2015-11-21T02:01:03.723Z,702.86
2015-11-21T02:01:17.005Z,702.94
2015-11-21T02:01:30.317Z,702.8
2015-11-21T02:01:43.648Z,702.85
2015-11-21T02:01:56.961Z,702.82
2015-11-21T02:02:10.226Z,702.91
2015-11-21T02:02:23.492Z,702.83
2015-11-21T02:02:36.742Z,702.93
2015-11-21T02:02:50.339Z,702.97
2015-11-21T02:03:03.667Z,702.71
2015-11-21T02:03:16.964Z,703.01
2015-11-21T02:03:30.229Z,702.82
2015-11-21T02:03:43.529Z,702.68
2015-11-21T02:03:56.857Z,702.71
2015-11-21T02:04:10.154Z,702.52
2015-11-21T02:04:23.467Z,702.82
2015-11-21T02:04:36.764Z,702.72
2015-11-21T02:04:50.031Z,702.85
2015-11-21T02:05:03.297Z,702.85
2015-11-21T02:05:16.563Z,702.83
2015-11-21T02:05:29.813Z,702.76
2015-11-21T02:05:43.158Z,702.71
2015-11-21T02:05:56.455Z,702.98
2015-11-21T02:06:09.736Z,702.9
2015-11-21T02:06:23.018Z,702.91
2015-11-21T02:06:36.299Z,702.19
2015-11-21T02:06:49.583Z,702.62
2015-11-21T02:07:02.849Z,702.99
2015-11-21T02:07:16.114Z,702.52
2015-11-21T02:07:29.396Z,702.81
2015-11-21T02:07:42.724Z,702.52
2015-11-21T02:07:56.117Z,702.58
2015-11-21T02:08:09.430Z,702.89
2015-11-21T02:08:22.680Z,702.98
2015-11-21T02:08:35.930Z,702.58
2015-11-21T02:08:49.230Z,702.71
2015-11-21T02:09:02.495Z,702.76
2015-11-21T02:09:15.824Z,702.4
2015-11-21T02:09:29.120Z,702.52
2015-11-21T02:09:42.433Z,702.59
2015-11-21T02:09:55.747Z,702.41
2015-11-21T02:10:09.060Z,702.6
2015-11-21T02:10:22.341Z,702.53
2015-11-21T02:10:35.622Z,702.74
2015-11-21T02:11:16.391Z,702.85
2015-11-21T02:11:29.641Z,702.17
2015-11-21T02:11:42.922Z,702.91
2015-11-21T02:11:56.207Z,702.61
2015-11-21T02:12:09.488Z,702.75
2015-11-21T02:12:22.832Z,702.69
2015-11-21T02:12:36.191Z,702.59
2015-11-21T02:12:49.457Z,702.37
2015-11-21T02:13:02.959Z,702.77
2015-11-21T02:13:16.271Z,702.51
2015-11-21T02:13:29.584Z,702.67
2015-11-21T02:13:42.865Z,702.7
2015-11-21T02:13:56.149Z,702.61
2015-11-21T02:14:09.430Z,702.58
2015-11-21T02:14:22.712Z,702.68
2015-11-21T02:14:36.087Z,702.59
2015-11-21T02:14:49.352Z,702.58
2015-11-21T02:15:02.636Z,702.5
2015-11-21T02:15:15.902Z,702.71
2015-11-21T02:15:29.152Z,702.79
2015-11-21T02:15:42.418Z,702.68
2015-11-21T02:15:55.921Z,702.69
2015-11-21T02:16:23.421Z,702.43
2015-11-21T02:16:36.686Z,702.27
2015-11-21T02:16:50.014Z,702.77
2015-11-21T02:17:03.267Z,702.59
2015-11-21T02:17:16.596Z,702.54
2015-11-21T02:17:29.877Z,702.56
2015-11-21T02:17:43.142Z,702.81
2015-11-21T02:17:56.441Z,702.52
2015-11-21T02:18:09.707Z,702.9
2015-11-21T02:18:23.019Z,702.92
2015-11-21T02:18:36.301Z,702.75
2015-11-21T02:18:49.613Z,702.54
2015-11-21T02:19:02.897Z,702.68
2015-11-21T02:19:16.147Z,702.64
2015-11-21T02:19:29.413Z,702.3
2015-11-21T02:19:42.663Z,702.61
2015-11-21T02:19:55.932Z,702.76
2015-11-21T02:20:09.213Z,702.74
2015-11-21T02:20:22.494Z,702.54
2015-11-21T02:20:36.025Z,702.61
2015-11-21T02:20:49.322Z,702.67
2015-11-21T02:21:02.574Z,702.79
2015-11-21T02:21:15.871Z,702.61
2015-11-21T02:21:29.152Z,702.87
2015-11-21T02:21:42.418Z,702.6
2015-11-21T02:21:55.668Z,702.35
2015-11-21T02:22:08.938Z,702.71
2015-11-21T02:22:22.203Z,702.68
2015-11-21T02:22:35.485Z,702.59
2015-11-21T02:22:48.813Z,702.72
2015-11-21T02:23:02.096Z,702.6
2015-11-21T02:23:15.346Z,702.73
2015-11-21T02:23:28.596Z,702.6
2015-11-21T02:23:41.862Z,702.84
2015-11-21T02:23:55.252Z,702.53
2015-11-21T02:24:08.536Z,702.6
2015-11-21T02:24:21.818Z,702.89
2015-11-21T02:24:35.115Z,702.78
2015-11-21T02:24:48.396Z,702.95
2015-11-21T02:25:01.742Z,702.55
2015-11-21T02:25:15.101Z,702.8
2015-11-21T02:25:28.367Z,702.63
2015-11-21T02:25:41.632Z,702.61
2015-11-21T02:25:54.882Z,702.5
2015-11-21T02:26:08.166Z,702.63
2015-11-21T02:26:21.432Z,702.45
2015-11-21T02:26:34.713Z,702.46
2015-11-21T02:26:48.010Z,702.54
2015-11-21T02:27:01.323Z,702.4
2015-11-21T02:27:14.638Z,702.37
2015-11-21T02:27:27.888Z,702.66
2015-11-21T02:27:41.154Z,702.68
2015-11-21T02:27:54.404Z,702.71
2015-11-21T02:28:07.671Z,702.54
2015-11-21T02:28:20.937Z,702.76
2015-11-21T02:28:34.218Z,702.6
2015-11-21T02:28:47.531Z,702.59
2015-11-21T02:29:00.812Z,702.59
2015-11-21T02:29:14.128Z,702.52
2015-11-21T02:29:27.393Z,702.75
2015-11-21T02:29:40.659Z,702.56
2015-11-21T02:29:53.924Z,702.43
2015-11-21T02:30:07.177Z,702.71
2015-11-21T02:30:20.443Z,702.51
2015-11-21T02:30:33.693Z,702.79
2015-11-21T02:30:46.990Z,702.67
2015-11-21T02:31:00.271Z,702.8
2015-11-21T02:31:13.554Z,702.66
2015-11-21T02:31:26.867Z,702.6
2015-11-21T02:31:40.179Z,702.62
2015-11-21T02:31:53.476Z,702.62
2015-11-21T02:32:06.742Z,702.68
2015-11-21T02:32:19.996Z,702.49
2015-11-21T02:32:33.262Z,702.44
2015-11-21T02:32:46.512Z,702.37
2015-11-21T02:32:59.777Z,702.37
2015-11-21T02:33:13.029Z,702.45
2015-11-21T02:33:26.295Z,702.48
2015-11-21T02:33:39.576Z,702.41
2015-11-21T02:33:52.904Z,702.43
2015-11-21T02:34:06.201Z,702.44
2015-11-21T02:34:19.501Z,702.36
2015-11-21T02:34:32.751Z,702.32
2015-11-21T02:34:46.017Z,702.51
2015-11-21T02:34:59.282Z,702.39
2015-11-21T02:35:12.535Z,702.43
2015-11-21T02:35:25.801Z,702.43
2015-11-21T02:35:39.082Z,702.48
2015-11-21T02:35:52.395Z,702.37
2015-11-21T02:36:05.660Z,702.59
2015-11-21T02:36:18.959Z,702.45
2015-11-21T02:36:32.225Z,702.27
2015-11-21T02:36:45.475Z,702.47
2015-11-21T02:36:58.834Z,702.4
2015-11-21T02:37:12.115Z,702.37
2015-11-21T02:37:25.384Z,702.16
2015-11-21T02:37:38.665Z,702.48
2015-11-21T02:37:51.993Z,702.19
2015-11-21T02:38:05.275Z,702.32
2015-11-21T02:38:18.559Z,702.42
2015-11-21T02:38:31.824Z,702.3
2015-11-21T02:38:45.059Z,702.38
2015-11-21T02:38:58.434Z,702.31
2015-11-21T02:39:11.699Z,702.33
2015-11-21T02:39:24.999Z,702.35
2015-11-21T02:39:38.281Z,702.45
2015-11-21T02:39:51.531Z,702.46
2015-11-21T02:40:05.046Z,702.34
2015-11-21T02:40:18.315Z,702.4
2015-11-21T02:40:31.612Z,702.45
2015-11-21T02:40:45.080Z,702.36
2015-11-21T02:40:58.393Z,702.2
2015-11-21T02:41:11.659Z,702.25
2015-11-21T02:41:24.911Z,702.28
2015-11-21T02:41:38.176Z,702.29
2015-11-21T02:41:51.426Z,702.25
2015-11-21T02:42:04.707Z,702.22
2015-11-21T02:42:18.242Z,702.04
2015-11-21T02:42:31.523Z,702.15
2015-11-21T02:42:44.820Z,702.22
2015-11-21T02:42:58.070Z,702.33
2015-11-21T02:43:11.335Z,702.24
2015-11-21T02:43:24.713Z,702.15
2015-11-21T02:43:38.073Z,701.98
2015-11-21T02:43:51.323Z,702.19
2015-11-21T02:44:04.588Z,702
2015-11-21T02:44:17.948Z,702.07
2015-11-21T02:44:31.310Z,702.18
2015-11-21T02:44:44.591Z,702.23
2015-11-21T02:45:12.060Z,702.21
2015-11-21T02:45:25.390Z,702.13
2015-11-21T02:45:38.656Z,702.04
2015-11-21T02:45:51.984Z,702.2
2015-11-21T02:46:05.250Z,702.25
2015-11-21T02:46:18.547Z,701.96
2015-11-21T02:46:31.784Z,702.05
2015-11-21T02:46:45.050Z,701.92
2015-11-21T02:46:58.190Z,702.17
2015-11-21T02:47:11.534Z,702.14
2015-11-21T02:47:24.849Z,702.03
2015-11-21T02:47:38.146Z,702.15
2015-11-21T02:47:51.474Z,701.91